sensor_id;sensor_type;location;lat;lon;timestamp;P1;durP1;ratioP1;P2;durP2;ratioP2
6412;SDS011;3239;48.714;9.472;2023-05-23T00:01:53;10.63;;;9.50;;
6412;SDS011;3239;48.714;9.472;2023-05-23T00:04:22;10.27;;;9.20;;
6412;SDS011;3239;48.714;9.472;2023-05-23T00:06:51;9.87;;;8.57;;
6412;SDS011;3239;48.714;9.472;2023-05-23T00:09:17;11.57;;;10.37;;
6412;SDS011;3239;48.714;9.472;2023-05-23T00:11:43;11.40;;;9.73;;
6412;SDS011;3239;48.714;9.472;2023-05-23T00:14:13;11.30;;;9.97;;
6412;SDS011;3239;48.714;9.472;2023-05-23T00:16:43;11.60;;;10.50;;
6412;SDS011;3239;48.714;9.472;2023-05-23T00:19:09;11.20;;;10.00;;
6412;SDS011;3239;48.714;9.472;2023-05-23T00:21:38;13.80;;;10.30;;
6412;SDS011;3239;48.714;9.472;2023-05-23T00:24:05;11.00;;;9.90;;
6412;SDS011;3239;48.714;9.472;2023-05-23T00:26:31;11.87;;;10.67;;
6412;SDS011;3239;48.714;9.472;2023-05-23T00:28:58;12.20;;;10.10;;
6412;SDS011;3239;48.714;9.472;2023-05-23T00:31:24;12.70;;;10.00;;
6412;SDS011;3239;48.714;9.472;2023-05-23T00:33:50;12.20;;;9.87;;
6412;SDS011;3239;48.714;9.472;2023-05-23T00:36:15;11.97;;;10.00;;
6412;SDS011;3239;48.714;9.472;2023-05-23T00:38:42;10.60;;;9.70;;
6412;SDS011;3239;48.714;9.472;2023-05-23T00:41:09;11.97;;;10.70;;
6412;SDS011;3239;48.714;9.472;2023-05-23T00:43:36;13.13;;;11.73;;
6412;SDS011;3239;48.714;9.472;2023-05-23T00:46:01;11.80;;;10.60;;
6412;SDS011;3239;48.714;9.472;2023-05-23T00:48:28;14.07;;;12.53;;
6412;SDS011;3239;48.714;9.472;2023-05-23T00:50:53;12.50;;;11.20;;
6412;SDS011;3239;48.714;9.472;2023-05-23T00:53:21;12.43;;;11.13;;
6412;SDS011;3239;48.714;9.472;2023-05-23T00:55:47;12.70;;;11.50;;
6412;SDS011;3239;48.714;9.472;2023-05-23T00:58:12;12.10;;;10.80;;
6412;SDS011;3239;48.714;9.472;2023-05-23T01:00:40;13.03;;;11.80;;
6412;SDS011;3239;48.714;9.472;2023-05-23T01:03:06;12.90;;;10.73;;
6412;SDS011;3239;48.714;9.472;2023-05-23T01:05:32;12.90;;;11.47;;
6412;SDS011;3239;48.714;9.472;2023-05-23T01:07:58;16.57;;;11.80;;
6412;SDS011;3239;48.714;9.472;2023-05-23T01:10:27;10.87;;;9.87;;
6412;SDS011;3239;48.714;9.472;2023-05-23T01:15:41;12.20;;;10.07;;
6412;SDS011;3239;48.714;9.472;2023-05-23T01:21:35;10.73;;;9.73;;
6412;SDS011;3239;48.714;9.472;2023-05-23T01:27:24;12.33;;;11.10;;
6412;SDS011;3239;48.714;9.472;2023-05-23T01:30:10;12.30;;;11.03;;
6412;SDS011;3239;48.714;9.472;2023-05-23T01:32:41;14.00;;;12.40;;
6412;SDS011;3239;48.714;9.472;2023-05-23T01:35:09;12.70;;;11.40;;
6412;SDS011;3239;48.714;9.472;2023-05-23T01:37:35;13.70;;;12.33;;
6412;SDS011;3239;48.714;9.472;2023-05-23T01:40:01;15.77;;;12.17;;
6412;SDS011;3239;48.714;9.472;2023-05-23T01:42:27;13.07;;;11.80;;
6412;SDS011;3239;48.714;9.472;2023-05-23T01:44:53;22.83;;;13.50;;
6412;SDS011;3239;48.714;9.472;2023-05-23T01:47:23;13.87;;;12.30;;
6412;SDS011;3239;48.714;9.472;2023-05-23T01:49:49;11.53;;;10.40;;
6412;SDS011;3239;48.714;9.472;2023-05-23T01:52:16;13.00;;;10.83;;
6412;SDS011;3239;48.714;9.472;2023-05-23T01:54:42;11.27;;;10.07;;
6412;SDS011;3239;48.714;9.472;2023-05-23T01:57:09;15.60;;;11.07;;
6412;SDS011;3239;48.714;9.472;2023-05-23T01:59:35;13.97;;;11.97;;
6412;SDS011;3239;48.714;9.472;2023-05-23T02:02:02;14.57;;;11.73;;
6412;SDS011;3239;48.714;9.472;2023-05-23T02:04:28;14.63;;;12.43;;
6412;SDS011;3239;48.714;9.472;2023-05-23T02:06:54;14.63;;;11.43;;
6412;SDS011;3239;48.714;9.472;2023-05-23T02:09:20;14.90;;;13.20;;
6412;SDS011;3239;48.714;9.472;2023-05-23T02:11:46;13.40;;;12.00;;
6412;SDS011;3239;48.714;9.472;2023-05-23T02:14:11;14.73;;;13.33;;
6412;SDS011;3239;48.714;9.472;2023-05-23T02:16:37;14.53;;;13.03;;
6412;SDS011;3239;48.714;9.472;2023-05-23T02:19:03;15.37;;;13.17;;
6412;SDS011;3239;48.714;9.472;2023-05-23T02:21:29;14.33;;;12.93;;
6412;SDS011;3239;48.714;9.472;2023-05-23T02:23:55;15.90;;;13.47;;
6412;SDS011;3239;48.714;9.472;2023-05-23T02:26:21;14.40;;;12.90;;
6412;SDS011;3239;48.714;9.472;2023-05-23T02:28:47;17.40;;;14.53;;
6412;SDS011;3239;48.714;9.472;2023-05-23T02:31:12;15.60;;;13.60;;
6412;SDS011;3239;48.714;9.472;2023-05-23T02:33:38;18.70;;;14.27;;
6412;SDS011;3239;48.714;9.472;2023-05-23T02:36:04;18.57;;;14.13;;
6412;SDS011;3239;48.714;9.472;2023-05-23T02:38:30;21.20;;;14.33;;
6412;SDS011;3239;48.714;9.472;2023-05-23T02:40:56;16.40;;;14.00;;
6412;SDS011;3239;48.714;9.472;2023-05-23T02:43:22;18.00;;;14.23;;
6412;SDS011;3239;48.714;9.472;2023-05-23T02:45:48;17.57;;;14.93;;
6412;SDS011;3239;48.714;9.472;2023-05-23T02:48:13;18.40;;;14.47;;
6412;SDS011;3239;48.714;9.472;2023-05-23T02:50:40;17.67;;;14.43;;
6412;SDS011;3239;48.714;9.472;2023-05-23T02:53:05;17.33;;;14.63;;
6412;SDS011;3239;48.714;9.472;2023-05-23T02:55:31;22.20;;;14.43;;
6412;SDS011;3239;48.714;9.472;2023-05-23T02:57:57;16.13;;;13.83;;
6412;SDS011;3239;48.714;9.472;2023-05-23T03:00:23;19.90;;;15.90;;
6412;SDS011;3239;48.714;9.472;2023-05-23T03:02:49;18.60;;;15.40;;
6412;SDS011;3239;48.714;9.472;2023-05-23T03:05:15;17.17;;;15.40;;
6412;SDS011;3239;48.714;9.472;2023-05-23T03:07:41;16.77;;;14.97;;
6412;SDS011;3239;48.714;9.472;2023-05-23T03:10:08;17.37;;;15.20;;
6412;SDS011;3239;48.714;9.472;2023-05-23T03:12:34;18.07;;;13.93;;
6412;SDS011;3239;48.714;9.472;2023-05-23T03:15:00;17.80;;;15.90;;
6412;SDS011;3239;48.714;9.472;2023-05-23T03:17:26;23.23;;;16.40;;
6412;SDS011;3239;48.714;9.472;2023-05-23T03:19:52;22.67;;;16.00;;
6412;SDS011;3239;48.714;9.472;2023-05-23T03:22:18;16.30;;;14.40;;
6412;SDS011;3239;48.714;9.472;2023-05-23T03:24:44;17.40;;;15.00;;
6412;SDS011;3239;48.714;9.472;2023-05-23T03:27:09;16.20;;;14.07;;
6412;SDS011;3239;48.714;9.472;2023-05-23T03:29:35;18.63;;;15.63;;
6412;SDS011;3239;48.714;9.472;2023-05-23T03:32:01;18.80;;;15.07;;
6412;SDS011;3239;48.714;9.472;2023-05-23T03:34:27;18.53;;;15.97;;
6412;SDS011;3239;48.714;9.472;2023-05-23T03:36:52;18.80;;;16.20;;
6412;SDS011;3239;48.714;9.472;2023-05-23T03:39:18;17.33;;;13.93;;
6412;SDS011;3239;48.714;9.472;2023-05-23T03:41:44;15.93;;;14.07;;
6412;SDS011;3239;48.714;9.472;2023-05-23T03:44:10;19.30;;;15.93;;
6412;SDS011;3239;48.714;9.472;2023-05-23T03:46:35;20.37;;;15.83;;
6412;SDS011;3239;48.714;9.472;2023-05-23T03:49:01;17.33;;;14.40;;
6412;SDS011;3239;48.714;9.472;2023-05-23T03:51:27;21.40;;;14.83;;
6412;SDS011;3239;48.714;9.472;2023-05-23T03:53:53;18.57;;;16.10;;
6412;SDS011;3239;48.714;9.472;2023-05-23T03:56:19;21.60;;;15.80;;
6412;SDS011;3239;48.714;9.472;2023-05-23T03:58:45;22.83;;;17.77;;
6412;SDS011;3239;48.714;9.472;2023-05-23T04:01:11;20.43;;;16.20;;
6412;SDS011;3239;48.714;9.472;2023-05-23T04:03:37;20.23;;;17.53;;
6412;SDS011;3239;48.714;9.472;2023-05-23T04:06:03;22.87;;;18.30;;
6412;SDS011;3239;48.714;9.472;2023-05-23T04:08:29;24.63;;;17.20;;
6412;SDS011;3239;48.714;9.472;2023-05-23T04:10:57;19.67;;;16.30;;
6412;SDS011;3239;48.714;9.472;2023-05-23T04:13:26;19.47;;;15.60;;
6412;SDS011;3239;48.714;9.472;2023-05-23T04:15:53;18.43;;;15.60;;
6412;SDS011;3239;48.714;9.472;2023-05-23T04:18:21;22.90;;;16.90;;
6412;SDS011;3239;48.714;9.472;2023-05-23T04:20:47;25.93;;;18.10;;
6412;SDS011;3239;48.714;9.472;2023-05-23T04:23:13;21.20;;;16.17;;
6412;SDS011;3239;48.714;9.472;2023-05-23T04:25:39;18.20;;;16.23;;
6412;SDS011;3239;48.714;9.472;2023-05-23T04:28:05;30.13;;;19.33;;
6412;SDS011;3239;48.714;9.472;2023-05-23T04:30:31;23.70;;;19.03;;
6412;SDS011;3239;48.714;9.472;2023-05-23T04:32:57;20.93;;;17.40;;
6412;SDS011;3239;48.714;9.472;2023-05-23T04:35:23;29.27;;;18.77;;
6412;SDS011;3239;48.714;9.472;2023-05-23T04:37:53;28.60;;;19.63;;
6412;SDS011;3239;48.714;9.472;2023-05-23T04:40:21;23.17;;;18.07;;
6412;SDS011;3239;48.714;9.472;2023-05-23T04:42:48;29.70;;;19.60;;
6412;SDS011;3239;48.714;9.472;2023-05-23T04:45:15;31.03;;;21.30;;
6412;SDS011;3239;48.714;9.472;2023-05-23T04:47:47;31.03;;;19.30;;
6412;SDS011;3239;48.714;9.472;2023-05-23T04:50:13;25.47;;;19.97;;
6412;SDS011;3239;48.714;9.472;2023-05-23T04:52:39;32.23;;;23.17;;
6412;SDS011;3239;48.714;9.472;2023-05-23T04:55:05;40.07;;;25.07;;
6412;SDS011;3239;48.714;9.472;2023-05-23T04:57:32;28.47;;;21.40;;
6412;SDS011;3239;48.714;9.472;2023-05-23T04:59:59;27.00;;;22.00;;
6412;SDS011;3239;48.714;9.472;2023-05-23T05:02:25;39.30;;;25.03;;
6412;SDS011;3239;48.714;9.472;2023-05-23T05:04:51;35.17;;;24.00;;
6412;SDS011;3239;48.714;9.472;2023-05-23T05:07:17;29.37;;;21.70;;
6412;SDS011;3239;48.714;9.472;2023-05-23T05:09:43;29.00;;;22.33;;
6412;SDS011;3239;48.714;9.472;2023-05-23T05:12:09;31.67;;;22.77;;
6412;SDS011;3239;48.714;9.472;2023-05-23T05:14:34;28.83;;;22.60;;
6412;SDS011;3239;48.714;9.472;2023-05-23T05:17:01;37.10;;;25.50;;
6412;SDS011;3239;48.714;9.472;2023-05-23T05:19:27;34.40;;;23.83;;
6412;SDS011;3239;48.714;9.472;2023-05-23T05:21:53;38.63;;;26.17;;
6412;SDS011;3239;48.714;9.472;2023-05-23T05:24:19;44.97;;;28.60;;
6412;SDS011;3239;48.714;9.472;2023-05-23T05:26:46;46.50;;;31.70;;
6412;SDS011;3239;48.714;9.472;2023-05-23T05:29:12;47.00;;;29.90;;
6412;SDS011;3239;48.714;9.472;2023-05-23T05:31:39;49.77;;;31.37;;
6412;SDS011;3239;48.714;9.472;2023-05-23T05:34:04;60.67;;;37.80;;
6412;SDS011;3239;48.714;9.472;2023-05-23T05:36:30;53.10;;;36.63;;
6412;SDS011;3239;48.714;9.472;2023-05-23T05:38:56;65.70;;;42.97;;
6412;SDS011;3239;48.714;9.472;2023-05-23T05:41:22;72.23;;;46.63;;
6412;SDS011;3239;48.714;9.472;2023-05-23T05:43:48;75.07;;;46.70;;
6412;SDS011;3239;48.714;9.472;2023-05-23T05:46:13;71.73;;;46.87;;
6412;SDS011;3239;48.714;9.472;2023-05-23T05:48:39;74.50;;;45.43;;
6412;SDS011;3239;48.714;9.472;2023-05-23T05:51:05;66.97;;;43.00;;
6412;SDS011;3239;48.714;9.472;2023-05-23T05:53:31;67.83;;;42.33;;
6412;SDS011;3239;48.714;9.472;2023-05-23T05:55:56;73.47;;;45.30;;
6412;SDS011;3239;48.714;9.472;2023-05-23T05:58:22;76.00;;;45.93;;
6412;SDS011;3239;48.714;9.472;2023-05-23T06:00:48;67.97;;;44.67;;
6412;SDS011;3239;48.714;9.472;2023-05-23T06:03:14;78.57;;;46.13;;
6412;SDS011;3239;48.714;9.472;2023-05-23T06:05:40;56.33;;;37.57;;
6412;SDS011;3239;48.714;9.472;2023-05-23T06:08:05;60.07;;;41.47;;
6412;SDS011;3239;48.714;9.472;2023-05-23T06:10:31;62.37;;;42.33;;
6412;SDS011;3239;48.714;9.472;2023-05-23T06:12:58;59.77;;;40.13;;
6412;SDS011;3239;48.714;9.472;2023-05-23T06:15:24;60.43;;;42.20;;
6412;SDS011;3239;48.714;9.472;2023-05-23T06:17:50;59.70;;;40.60;;
6412;SDS011;3239;48.714;9.472;2023-05-23T06:20:16;54.93;;;37.73;;
6412;SDS011;3239;48.714;9.472;2023-05-23T06:22:42;55.93;;;38.23;;
6412;SDS011;3239;48.714;9.472;2023-05-23T06:25:07;59.60;;;37.97;;
6412;SDS011;3239;48.714;9.472;2023-05-23T06:27:33;50.17;;;35.83;;
6412;SDS011;3239;48.714;9.472;2023-05-23T06:29:59;58.00;;;36.20;;
6412;SDS011;3239;48.714;9.472;2023-05-23T06:32:25;49.27;;;34.97;;
6412;SDS011;3239;48.714;9.472;2023-05-23T06:34:50;49.83;;;37.40;;
6412;SDS011;3239;48.714;9.472;2023-05-23T06:37:16;45.53;;;35.43;;
6412;SDS011;3239;48.714;9.472;2023-05-23T06:39:42;49.27;;;34.77;;
6412;SDS011;3239;48.714;9.472;2023-05-23T06:42:08;45.33;;;33.30;;
6412;SDS011;3239;48.714;9.472;2023-05-23T06:44:33;47.10;;;32.37;;
6412;SDS011;3239;48.714;9.472;2023-05-23T06:46:59;56.23;;;32.63;;
6412;SDS011;3239;48.714;9.472;2023-05-23T06:49:25;51.80;;;34.73;;
6412;SDS011;3239;48.714;9.472;2023-05-23T06:51:51;48.73;;;32.90;;
6412;SDS011;3239;48.714;9.472;2023-05-23T06:54:17;48.73;;;33.30;;
6412;SDS011;3239;48.714;9.472;2023-05-23T06:56:43;48.90;;;34.43;;
6412;SDS011;3239;48.714;9.472;2023-05-23T06:59:09;47.30;;;33.40;;
6412;SDS011;3239;48.714;9.472;2023-05-23T07:01:35;46.60;;;34.83;;
6412;SDS011;3239;48.714;9.472;2023-05-23T07:04:01;47.53;;;35.57;;
6412;SDS011;3239;48.714;9.472;2023-05-23T07:06:26;51.57;;;35.37;;
6412;SDS011;3239;48.714;9.472;2023-05-23T07:08:52;53.97;;;36.70;;
6412;SDS011;3239;48.714;9.472;2023-05-23T07:11:21;51.90;;;35.60;;
6412;SDS011;3239;48.714;9.472;2023-05-23T07:13:47;52.63;;;36.70;;
6412;SDS011;3239;48.714;9.472;2023-05-23T07:16:13;47.47;;;34.57;;
6412;SDS011;3239;48.714;9.472;2023-05-23T07:18:39;48.00;;;35.23;;
6412;SDS011;3239;48.714;9.472;2023-05-23T07:21:04;51.67;;;36.10;;
6412;SDS011;3239;48.714;9.472;2023-05-23T07:23:33;52.77;;;36.00;;
6412;SDS011;3239;48.714;9.472;2023-05-23T07:25:59;50.37;;;34.97;;
6412;SDS011;3239;48.714;9.472;2023-05-23T07:28:26;51.73;;;35.50;;
6412;SDS011;3239;48.714;9.472;2023-05-23T07:30:52;49.73;;;36.20;;
6412;SDS011;3239;48.714;9.472;2023-05-23T07:33:18;46.50;;;34.40;;
6412;SDS011;3239;48.714;9.472;2023-05-23T07:35:44;48.07;;;32.83;;
6412;SDS011;3239;48.714;9.472;2023-05-23T07:38:10;54.10;;;35.87;;
6412;SDS011;3239;48.714;9.472;2023-05-23T07:40:36;46.37;;;34.80;;
6412;SDS011;3239;48.714;9.472;2023-05-23T07:43:04;47.37;;;32.50;;
6412;SDS011;3239;48.714;9.472;2023-05-23T07:45:30;47.70;;;32.87;;
6412;SDS011;3239;48.714;9.472;2023-05-23T07:47:55;51.50;;;33.77;;
6412;SDS011;3239;48.714;9.472;2023-05-23T07:50:21;42.03;;;32.77;;
6412;SDS011;3239;48.714;9.472;2023-05-23T07:52:47;42.13;;;31.30;;
6412;SDS011;3239;48.714;9.472;2023-05-23T07:55:15;44.33;;;32.50;;
6412;SDS011;3239;48.714;9.472;2023-05-23T07:57:40;37.80;;;29.97;;
6412;SDS011;3239;48.714;9.472;2023-05-23T08:00:06;47.70;;;33.77;;
6412;SDS011;3239;48.714;9.472;2023-05-23T08:02:34;45.97;;;33.17;;
6412;SDS011;3239;48.714;9.472;2023-05-23T08:05:00;43.17;;;32.80;;
6412;SDS011;3239;48.714;9.472;2023-05-23T08:07:25;43.33;;;34.13;;
6412;SDS011;3239;48.714;9.472;2023-05-23T08:09:51;41.17;;;33.20;;
6412;SDS011;3239;48.714;9.472;2023-05-23T08:12:17;45.63;;;34.07;;
6412;SDS011;3239;48.714;9.472;2023-05-23T08:14:43;37.30;;;31.17;;
6412;SDS011;3239;48.714;9.472;2023-05-23T08:17:09;40.87;;;30.50;;
6412;SDS011;3239;48.714;9.472;2023-05-23T08:19:36;37.70;;;29.40;;
6412;SDS011;3239;48.714;9.472;2023-05-23T08:22:02;39.17;;;28.47;;
6412;SDS011;3239;48.714;9.472;2023-05-23T08:24:28;34.30;;;27.87;;
6412;SDS011;3239;48.714;9.472;2023-05-23T08:26:55;32.90;;;27.70;;
6412;SDS011;3239;48.714;9.472;2023-05-23T08:29:20;36.00;;;27.60;;
6412;SDS011;3239;48.714;9.472;2023-05-23T08:31:46;31.63;;;26.93;;
6412;SDS011;3239;48.714;9.472;2023-05-23T08:34:12;27.10;;;23.37;;
6412;SDS011;3239;48.714;9.472;2023-05-23T08:36:38;32.90;;;24.90;;
6412;SDS011;3239;48.714;9.472;2023-05-23T08:39:06;24.17;;;21.43;;
6412;SDS011;3239;48.714;9.472;2023-05-23T08:41:32;27.80;;;24.43;;
6412;SDS011;3239;48.714;9.472;2023-05-23T08:43:59;27.43;;;22.77;;
6412;SDS011;3239;48.714;9.472;2023-05-23T08:46:25;27.43;;;22.03;;
6412;SDS011;3239;48.714;9.472;2023-05-23T08:48:52;25.90;;;22.13;;
6412;SDS011;3239;48.714;9.472;2023-05-23T08:51:23;28.03;;;21.37;;
6412;SDS011;3239;48.714;9.472;2023-05-23T08:53:51;25.00;;;21.40;;
6412;SDS011;3239;48.714;9.472;2023-05-23T08:56:20;25.43;;;21.97;;
6412;SDS011;3239;48.714;9.472;2023-05-23T08:58:48;22.40;;;19.80;;
6412;SDS011;3239;48.714;9.472;2023-05-23T09:01:17;23.90;;;19.97;;
6412;SDS011;3239;48.714;9.472;2023-05-23T09:03:44;22.27;;;19.90;;
6412;SDS011;3239;48.714;9.472;2023-05-23T09:06:10;23.20;;;20.80;;
6412;SDS011;3239;48.714;9.472;2023-05-23T09:08:36;26.23;;;20.53;;
6412;SDS011;3239;48.714;9.472;2023-05-23T09:11:03;25.23;;;19.97;;
6412;SDS011;3239;48.714;9.472;2023-05-23T09:13:30;26.77;;;19.83;;
6412;SDS011;3239;48.714;9.472;2023-05-23T09:18:31;20.30;;;17.57;;
6412;SDS011;3239;48.714;9.472;2023-05-23T09:21:03;23.23;;;17.90;;
6412;SDS011;3239;48.714;9.472;2023-05-23T09:23:33;22.13;;;19.80;;
6412;SDS011;3239;48.714;9.472;2023-05-23T09:26:04;25.93;;;19.53;;
6412;SDS011;3239;48.714;9.472;2023-05-23T09:28:35;26.63;;;19.00;;
6412;SDS011;3239;48.714;9.472;2023-05-23T09:31:06;20.20;;;17.27;;
6412;SDS011;3239;48.714;9.472;2023-05-23T09:33:45;20.10;;;16.43;;
6412;SDS011;3239;48.714;9.472;2023-05-23T09:36:13;19.03;;;16.90;;
6412;SDS011;3239;48.714;9.472;2023-05-23T09:38:41;20.77;;;17.00;;
6412;SDS011;3239;48.714;9.472;2023-05-23T09:41:12;19.30;;;17.27;;
6412;SDS011;3239;48.714;9.472;2023-05-23T09:43:39;20.47;;;17.00;;
6412;SDS011;3239;48.714;9.472;2023-05-23T09:46:14;16.57;;;14.90;;
6412;SDS011;3239;48.714;9.472;2023-05-23T09:48:39;20.20;;;14.37;;
6412;SDS011;3239;48.714;9.472;2023-05-23T09:51:17;16.13;;;13.57;;
6412;SDS011;3239;48.714;9.472;2023-05-23T09:53:45;14.67;;;13.23;;
6412;SDS011;3239;48.714;9.472;2023-05-23T09:56:11;14.53;;;13.03;;
6412;SDS011;3239;48.714;9.472;2023-05-23T09:58:39;15.60;;;13.50;;
6412;SDS011;3239;48.714;9.472;2023-05-23T10:01:13;13.17;;;11.80;;
6412;SDS011;3239;48.714;9.472;2023-05-23T10:03:44;13.20;;;11.90;;
6412;SDS011;3239;48.714;9.472;2023-05-23T10:06:21;14.50;;;13.00;;
6412;SDS011;3239;48.714;9.472;2023-05-23T10:09:04;15.17;;;12.87;;
6412;SDS011;3239;48.714;9.472;2023-05-23T10:14:01;14.13;;;12.63;;
6412;SDS011;3239;48.714;9.472;2023-05-23T10:19:37;13.73;;;12.27;;
6412;SDS011;3239;48.714;9.472;2023-05-23T10:22:11;14.80;;;13.20;;
6412;SDS011;3239;48.714;9.472;2023-05-23T10:24:39;16.73;;;12.60;;
6412;SDS011;3239;48.714;9.472;2023-05-23T10:27:07;14.47;;;12.00;;
6412;SDS011;3239;48.714;9.472;2023-05-23T10:29:33;17.20;;;12.90;;
6412;SDS011;3239;48.714;9.472;2023-05-23T10:32:00;13.73;;;12.30;;
6412;SDS011;3239;48.714;9.472;2023-05-23T10:34:31;13.90;;;12.43;;
6412;SDS011;3239;48.714;9.472;2023-05-23T10:37:16;19.03;;;12.40;;
6412;SDS011;3239;48.714;9.472;2023-05-23T10:42:56;15.07;;;11.40;;
6412;SDS011;3239;48.714;9.472;2023-05-23T10:45:38;13.63;;;12.30;;
6412;SDS011;3239;48.714;9.472;2023-05-23T10:48:31;15.53;;;11.80;;
6412;SDS011;3239;48.714;9.472;2023-05-23T10:53:34;13.73;;;12.43;;
6412;SDS011;3239;48.714;9.472;2023-05-23T10:56:05;13.67;;;12.37;;
6412;SDS011;3239;48.714;9.472;2023-05-23T10:58:34;14.87;;;13.27;;
6412;SDS011;3239;48.714;9.472;2023-05-23T11:01:06;13.30;;;11.77;;
6412;SDS011;3239;48.714;9.472;2023-05-23T11:14:16;13.23;;;11.93;;
6412;SDS011;3239;48.714;9.472;2023-05-23T11:16:42;14.97;;;12.73;;
6412;SDS011;3239;48.714;9.472;2023-05-23T11:22:05;15.63;;;13.67;;
6412;SDS011;3239;48.714;9.472;2023-05-23T11:24:51;13.20;;;11.87;;
6412;SDS011;3239;48.714;9.472;2023-05-23T11:27:25;12.87;;;11.67;;
6412;SDS011;3239;48.714;9.472;2023-05-23T11:30:13;14.87;;;12.00;;
6412;SDS011;3239;48.714;9.472;2023-05-23T11:32:48;11.60;;;10.50;;
6412;SDS011;3239;48.714;9.472;2023-05-23T11:35:16;16.07;;;11.90;;
6412;SDS011;3239;48.714;9.472;2023-05-23T11:37:42;12.70;;;9.97;;
6412;SDS011;3239;48.714;9.472;2023-05-23T11:43:07;10.87;;;9.77;;
6412;SDS011;3239;48.714;9.472;2023-05-23T11:45:38;11.80;;;10.47;;
6412;SDS011;3239;48.714;9.472;2023-05-23T11:48:09;11.90;;;10.77;;
6412;SDS011;3239;48.714;9.472;2023-05-23T11:50:52;11.40;;;10.43;;
6412;SDS011;3239;48.714;9.472;2023-05-23T11:53:19;11.80;;;10.70;;
6412;SDS011;3239;48.714;9.472;2023-05-23T11:55:49;11.27;;;10.17;;
6412;SDS011;3239;48.714;9.472;2023-05-23T11:58:19;11.60;;;10.50;;
6412;SDS011;3239;48.714;9.472;2023-05-23T12:00:46;11.00;;;9.90;;
6412;SDS011;3239;48.714;9.472;2023-05-23T12:03:12;10.50;;;9.60;;
6412;SDS011;3239;48.714;9.472;2023-05-23T12:05:38;10.60;;;9.50;;
6412;SDS011;3239;48.714;9.472;2023-05-23T12:08:06;9.73;;;8.90;;
6412;SDS011;3239;48.714;9.472;2023-05-23T12:10:37;10.10;;;9.20;;
6412;SDS011;3239;48.714;9.472;2023-05-23T12:13:17;9.17;;;8.37;;
6412;SDS011;3239;48.714;9.472;2023-05-23T12:15:44;16.20;;;9.07;;
6412;SDS011;3239;48.714;9.472;2023-05-23T12:18:11;9.40;;;8.60;;
6412;SDS011;3239;48.714;9.472;2023-05-23T12:20:37;11.13;;;8.50;;
6412;SDS011;3239;48.714;9.472;2023-05-23T12:23:04;8.90;;;8.03;;
6412;SDS011;3239;48.714;9.472;2023-05-23T12:25:39;26.07;;;8.20;;
6412;SDS011;3239;48.714;9.472;2023-05-23T12:28:08;11.00;;;7.43;;
6412;SDS011;3239;48.714;9.472;2023-05-23T12:30:40;11.20;;;7.37;;
6412;SDS011;3239;48.714;9.472;2023-05-23T12:33:07;7.80;;;7.10;;
6412;SDS011;3239;48.714;9.472;2023-05-23T12:35:34;8.30;;;7.50;;
6412;SDS011;3239;48.714;9.472;2023-05-23T12:38:00;7.80;;;7.00;;
6412;SDS011;3239;48.714;9.472;2023-05-23T12:40:27;10.30;;;6.80;;
6412;SDS011;3239;48.714;9.472;2023-05-23T12:42:54;8.60;;;7.87;;
6412;SDS011;3239;48.714;9.472;2023-05-23T12:45:30;10.53;;;7.30;;
6412;SDS011;3239;48.714;9.472;2023-05-23T12:47:57;8.47;;;7.77;;
6412;SDS011;3239;48.714;9.472;2023-05-23T12:50:24;8.00;;;7.30;;
6412;SDS011;3239;48.714;9.472;2023-05-23T12:52:49;6.97;;;6.37;;
6412;SDS011;3239;48.714;9.472;2023-05-23T12:55:16;6.93;;;6.30;;
6412;SDS011;3239;48.714;9.472;2023-05-23T12:57:42;9.47;;;7.00;;
6412;SDS011;3239;48.714;9.472;2023-05-23T13:00:08;7.00;;;6.03;;
6412;SDS011;3239;48.714;9.472;2023-05-23T13:02:35;10.00;;;6.07;;
6412;SDS011;3239;48.714;9.472;2023-05-23T13:05:01;6.20;;;5.70;;
6412;SDS011;3239;48.714;9.472;2023-05-23T13:07:27;6.17;;;5.60;;
6412;SDS011;3239;48.714;9.472;2023-05-23T13:09:53;8.80;;;5.40;;
6412;SDS011;3239;48.714;9.472;2023-05-23T13:12:19;6.03;;;5.60;;
6412;SDS011;3239;48.714;9.472;2023-05-23T13:14:44;7.13;;;6.10;;
6412;SDS011;3239;48.714;9.472;2023-05-23T13:17:10;5.80;;;5.40;;
6412;SDS011;3239;48.714;9.472;2023-05-23T13:19:36;6.30;;;5.70;;
6412;SDS011;3239;48.714;9.472;2023-05-23T13:22:03;6.60;;;6.00;;
6412;SDS011;3239;48.714;9.472;2023-05-23T13:24:34;5.40;;;4.90;;
6412;SDS011;3239;48.714;9.472;2023-05-23T13:27:06;5.83;;;5.20;;
6412;SDS011;3239;48.714;9.472;2023-05-23T13:29:32;5.87;;;5.43;;
6412;SDS011;3239;48.714;9.472;2023-05-23T13:31:58;6.03;;;5.40;;
6412;SDS011;3239;48.714;9.472;2023-05-23T13:34:24;6.37;;;5.80;;
6412;SDS011;3239;48.714;9.472;2023-05-23T13:36:52;5.60;;;5.10;;
6412;SDS011;3239;48.714;9.472;2023-05-23T13:39:18;6.60;;;5.50;;
6412;SDS011;3239;48.714;9.472;2023-05-23T13:41:48;6.20;;;5.60;;
6412;SDS011;3239;48.714;9.472;2023-05-23T13:44:14;6.10;;;5.60;;
6412;SDS011;3239;48.714;9.472;2023-05-23T13:46:40;5.83;;;5.27;;
6412;SDS011;3239;48.714;9.472;2023-05-23T13:49:07;5.50;;;4.97;;
6412;SDS011;3239;48.714;9.472;2023-05-23T13:51:33;5.00;;;4.50;;
6412;SDS011;3239;48.714;9.472;2023-05-23T13:54:01;5.13;;;4.73;;
6412;SDS011;3239;48.714;9.472;2023-05-23T13:56:28;4.13;;;3.83;;
6412;SDS011;3239;48.714;9.472;2023-05-23T13:58:54;6.03;;;5.03;;
6412;SDS011;3239;48.714;9.472;2023-05-23T14:01:19;5.53;;;5.13;;
6412;SDS011;3239;48.714;9.472;2023-05-23T14:03:45;5.20;;;4.80;;
6412;SDS011;3239;48.714;9.472;2023-05-23T14:06:11;5.33;;;4.93;;
6412;SDS011;3239;48.714;9.472;2023-05-23T14:08:36;4.57;;;4.17;;
6412;SDS011;3239;48.714;9.472;2023-05-23T14:11:02;4.47;;;4.10;;
6412;SDS011;3239;48.714;9.472;2023-05-23T14:13:28;4.87;;;4.30;;
6412;SDS011;3239;48.714;9.472;2023-05-23T14:15:53;4.00;;;3.60;;
6412;SDS011;3239;48.714;9.472;2023-05-23T14:18:19;4.60;;;4.20;;
6412;SDS011;3239;48.714;9.472;2023-05-23T14:20:45;5.07;;;4.50;;
6412;SDS011;3239;48.714;9.472;2023-05-23T14:23:11;5.80;;;4.70;;
6412;SDS011;3239;48.714;9.472;2023-05-23T14:25:36;5.40;;;5.00;;
6412;SDS011;3239;48.714;9.472;2023-05-23T14:28:03;4.80;;;4.40;;
6412;SDS011;3239;48.714;9.472;2023-05-23T14:30:28;5.17;;;4.67;;
6412;SDS011;3239;48.714;9.472;2023-05-23T14:32:54;4.60;;;4.20;;
6412;SDS011;3239;48.714;9.472;2023-05-23T14:35:20;4.50;;;4.10;;
6412;SDS011;3239;48.714;9.472;2023-05-23T14:37:46;5.33;;;4.10;;
6412;SDS011;3239;48.714;9.472;2023-05-23T14:40:12;4.30;;;3.93;;
6412;SDS011;3239;48.714;9.472;2023-05-23T14:42:40;5.23;;;4.37;;
6412;SDS011;3239;48.714;9.472;2023-05-23T14:45:06;7.13;;;5.30;;
6412;SDS011;3239;48.714;9.472;2023-05-23T14:47:32;5.27;;;3.80;;
6412;SDS011;3239;48.714;9.472;2023-05-23T14:49:59;5.43;;;3.67;;
6412;SDS011;3239;48.714;9.472;2023-05-23T14:52:25;4.23;;;3.83;;
6412;SDS011;3239;48.714;9.472;2023-05-23T14:54:51;9.63;;;3.80;;
6412;SDS011;3239;48.714;9.472;2023-05-23T14:57:16;3.87;;;3.57;;
6412;SDS011;3239;48.714;9.472;2023-05-23T14:59:42;3.93;;;3.37;;
6412;SDS011;3239;48.714;9.472;2023-05-23T15:02:08;5.43;;;3.60;;
6412;SDS011;3239;48.714;9.472;2023-05-23T15:04:34;3.80;;;3.50;;
6412;SDS011;3239;48.714;9.472;2023-05-23T15:07:00;4.80;;;4.37;;
6412;SDS011;3239;48.714;9.472;2023-05-23T15:09:26;3.50;;;3.20;;
6412;SDS011;3239;48.714;9.472;2023-05-23T15:11:52;4.67;;;3.70;;
6412;SDS011;3239;48.714;9.472;2023-05-23T15:14:18;3.10;;;2.90;;
6412;SDS011;3239;48.714;9.472;2023-05-23T15:16:45;4.37;;;3.93;;
6412;SDS011;3239;48.714;9.472;2023-05-23T15:19:12;4.40;;;3.50;;
6412;SDS011;3239;48.714;9.472;2023-05-23T15:21:38;6.23;;;3.33;;
6412;SDS011;3239;48.714;9.472;2023-05-23T15:24:04;3.27;;;2.97;;
6412;SDS011;3239;48.714;9.472;2023-05-23T15:26:30;3.17;;;2.47;;
6412;SDS011;3239;48.714;9.472;2023-05-23T15:28:56;3.63;;;3.10;;
6412;SDS011;3239;48.714;9.472;2023-05-23T15:31:22;3.07;;;2.77;;
6412;SDS011;3239;48.714;9.472;2023-05-23T15:33:47;6.57;;;3.20;;
6412;SDS011;3239;48.714;9.472;2023-05-23T15:36:13;3.40;;;3.00;;